createdAt,value
2022-09-11T00:00:21.340Z,99475.19
2022-09-11T00:03:09.723Z,99474.63
2022-09-11T00:05:57.040Z,99473.06
2022-09-11T00:08:45.421Z,99469.34
2022-09-11T00:11:37.692Z,99468.28
2022-09-11T00:14:28.972Z,99473.53
2022-09-11T00:17:17.286Z,99476.19
2022-09-11T00:20:05.445Z,99475.38
2022-09-11T00:22:53.379Z,99475.91
2022-09-11T00:25:41.409Z,99480.91
2022-09-11T00:28:28.926Z,99473.78
2022-09-11T00:31:20.801Z,99476.16
2022-09-11T00:34:08.088Z,99484.53
2022-09-11T00:36:55.475Z,99481.66
2022-09-11T00:39:43.075Z,99478.75
2022-09-11T00:42:30.452Z,99485.09
2022-09-11T00:45:24.824Z,99485.63
2022-09-11T00:48:18.391Z,99483.00
2022-09-11T00:51:06.448Z,99480.94
2022-09-11T00:53:55.775Z,99484.63
2022-09-11T00:56:44.365Z,99479.09
2022-09-11T00:59:34.269Z,99476.44
2022-09-11T01:02:27.271Z,99478.88
2022-09-11T01:05:17.532Z,99480.69
2022-09-11T01:08:06.399Z,99483.59
2022-09-11T01:11:09.029Z,99483.59
2022-09-11T01:14:04.907Z,99484.16
2022-09-11T01:16:57.951Z,99482.59
2022-09-11T01:20:20.916Z,99488.41
2022-09-11T01:23:55.117Z,99485.84
2022-09-11T01:27:00.085Z,99488.97
2022-09-11T01:29:59.299Z,99504.75
2022-09-11T01:33:07.341Z,99492.66
2022-09-11T01:36:01.024Z,99492.66
2022-09-11T01:38:54.308Z,99502.94
2022-09-11T01:41:49.301Z,99501.56
2022-09-11T01:44:41.868Z,99504.47
2022-09-11T01:47:36.223Z,99503.88
2022-09-11T01:50:25.572Z,99507.84
2022-09-11T01:53:17.877Z,99511.78
2022-09-11T01:56:10.386Z,99508.84
2022-09-11T01:59:04.527Z,99516.75
2022-09-11T02:02:00.545Z,99509.94
2022-09-11T02:04:54.611Z,99510.41
2022-09-11T02:07:48.495Z,99515.16
2022-09-11T02:10:43.068Z,99508.81
2022-09-11T02:13:40.400Z,99509.88
2022-09-11T02:16:42.956Z,99517.25
2022-09-11T02:19:33.703Z,99515.69
2022-09-11T02:22:22.837Z,99517.78
2022-09-11T02:25:10.724Z,99514.06
2022-09-11T02:27:59.079Z,99510.66
2022-09-11T02:30:47.071Z,99507.75
2022-09-11T02:33:38.334Z,99513.03
2022-09-11T02:36:54.825Z,99506.44
2022-09-11T02:40:06.443Z,99519.91
2022-09-11T02:43:38.622Z,99532.03
2022-09-11T02:46:45.697Z,99531.00
2022-09-11T02:49:47.332Z,99530.69
2022-09-11T02:52:47.679Z,99538.34
2022-09-11T02:55:53.846Z,99545.97
2022-09-11T02:58:47.631Z,99543.06
2022-09-11T03:01:48.894Z,99547.56
2022-09-11T03:04:37.262Z,99552.56
2022-09-11T03:07:25.483Z,99552.56
2022-09-11T03:10:13.387Z,99552.56
2022-09-11T03:13:02.040Z,99559.66
2022-09-11T03:15:52.065Z,99559.66
2022-09-11T03:18:39.454Z,99556.50
2022-09-11T03:21:26.976Z,99565.47
2022-09-11T03:24:14.520Z,99563.91
2022-09-11T03:27:02.181Z,99557.84
2022-09-11T03:29:51.856Z,99558.38
2022-09-11T03:32:39.961Z,99559.13
2022-09-11T03:35:27.337Z,99557.56
2022-09-11T03:38:15.698Z,99561.78
2022-09-11T03:41:03.424Z,99575.75
2022-09-11T03:43:52.444Z,99570.47
2022-09-11T03:46:41.442Z,99580.75
2022-09-11T03:49:29.532Z,99575.47
2022-09-11T03:52:16.781Z,99578.38
2022-09-11T03:55:04.326Z,99586.28
2022-09-11T03:57:52.156Z,99586.28
2022-09-11T04:00:43.059Z,99590.47
2022-09-11T04:03:31.832Z,99589.44
2022-09-11T04:06:20.377Z,99595.47
2022-09-11T04:09:09.041Z,99597.34
2022-09-11T04:11:57.409Z,99594.72
2022-09-11T04:14:48.460Z,99603.91
2022-09-11T04:17:38.112Z,99596.28
2022-09-11T04:20:27.586Z,99600.53
2022-09-11T04:23:15.020Z,99605.00
2022-09-11T04:26:05.331Z,99608.44
2022-09-11T04:28:52.913Z,99604.72
2022-09-11T04:31:41.360Z,99605.53
2022-09-11T04:34:30.201Z,99610.00
2022-09-11T04:37:19.877Z,99607.09
2022-09-11T04:40:09.927Z,99610.53
2022-09-11T04:42:57.806Z,99616.56
2022-09-11T04:45:45.212Z,99626.31
2022-09-11T04:48:33.354Z,99623.41
2022-09-11T04:51:23.919Z,99616.28
2022-09-11T04:54:15.705Z,99617.34
2022-09-11T04:57:04.360Z,99621.06
2022-09-11T04:59:54.029Z,99617.63
2022-09-11T05:02:41.671Z,99629.22
2022-09-11T05:05:29.625Z,99631.06
2022-09-11T05:08:18.927Z,99632.13
2022-09-11T05:11:13.472Z,99646.63
2022-09-11T05:14:01.426Z,99646.66
2022-09-11T05:16:52.886Z,99649.56
2022-09-11T05:19:44.659Z,99648.50
2022-09-11T05:22:32.313Z,99653.75
2022-09-11T05:25:21.701Z,99651.66
2022-09-11T05:28:11.801Z,99660.09
2022-09-11T05:31:00.489Z,99658.50
2022-09-11T05:33:48.627Z,99663.00
2022-09-11T05:36:37.104Z,99673.53
2022-09-11T05:39:25.076Z,99668.00
2022-09-11T05:42:15.941Z,99678.22
2022-09-11T05:45:10.565Z,99683.81
2022-09-11T05:47:57.888Z,99684.84
2022-09-11T05:50:53.421Z,99694.34
2022-09-11T05:53:42.710Z,99694.34
2022-09-11T05:56:32.475Z,99691.13
2022-09-11T05:59:27.137Z,99696.13
2022-09-11T06:02:16.335Z,99692.47
2022-09-11T06:05:10.914Z,99698.50
2022-09-11T06:08:01.495Z,99704.56
2022-09-11T06:10:49.302Z,99708.00
2022-09-11T06:13:40.026Z,99700.88
2022-09-11T06:16:31.674Z,99704.84
2022-09-11T06:19:29.247Z,99718.56
2022-09-11T06:22:18.129Z,99713.81
2022-09-11T06:25:08.065Z,99714.63
2022-09-11T06:27:56.517Z,99713.56
2022-09-11T06:30:44.718Z,99710.66
2022-09-11T06:33:34.554Z,99710.09
2022-09-11T06:36:27.299Z,99706.94
2022-09-11T06:39:17.239Z,99714.56
2022-09-11T06:42:04.884Z,99717.47
2022-09-11T06:44:55.866Z,99722.75
2022-09-11T06:47:44.848Z,99721.97
2022-09-11T06:50:40.936Z,99712.72
2022-09-11T06:53:29.953Z,99716.16
2022-09-11T06:56:19.510Z,99722.47
2022-09-11T06:59:07.271Z,99722.69
2022-09-11T07:01:55.466Z,99723.72
2022-09-11T07:04:42.999Z,99719.50
2022-09-11T07:07:31.978Z,99725.28
2022-09-11T07:10:21.276Z,99720.53
2022-09-11T07:13:13.434Z,99723.97
2022-09-11T07:16:02.379Z,99735.81
2022-09-11T07:18:52.322Z,99732.91
2022-09-11T07:21:42.416Z,99735.81
2022-09-11T07:24:29.826Z,99736.88
2022-09-11T07:27:19.603Z,99749.03
2022-09-11T07:30:10.079Z,99747.47
2022-09-11T07:33:00.016Z,99751.94
2022-09-11T07:35:49.276Z,99754.31
2022-09-11T07:38:37.274Z,99761.19
2022-09-11T07:41:28.944Z,99760.13
2022-09-11T07:44:23.285Z,99758.78
2022-09-11T07:47:11.795Z,99761.66
2022-09-11T07:50:04.521Z,99767.97
2022-09-11T07:52:53.342Z,99761.84
2022-09-11T07:55:43.619Z,99768.63
2022-09-11T07:58:35.113Z,99773.06
2022-09-11T08:01:27.639Z,99775.13
2022-09-11T08:04:16.066Z,99775.38
2022-09-11T08:07:04.672Z,99776.16
2022-09-11T08:10:10.452Z,99770.31
2022-09-11T08:13:09.350Z,99765.59
2022-09-11T08:15:58.299Z,99767.19
2022-09-11T08:18:49.150Z,99777.75
2022-09-11T08:21:38.240Z,99771.13
2022-09-11T08:24:27.497Z,99764.53
2022-09-11T08:27:20.129Z,99760.84
2022-09-11T08:30:10.160Z,99764.50
2022-09-11T08:32:59.655Z,99761.03
2022-09-11T08:35:50.246Z,99768.41
2022-09-11T08:38:38.215Z,99773.41
2022-09-11T08:41:42.113Z,99774.44
2022-09-11T08:44:41.328Z,99778.66
2022-09-11T08:47:40.528Z,99780.22
2022-09-11T08:50:36.100Z,99790.22
2022-09-11T08:53:25.936Z,99780.44
2022-09-11T08:56:19.511Z,99789.44
2022-09-11T08:59:21.085Z,99785.72
2022-09-11T09:02:31.406Z,99787.00
2022-09-11T09:05:32.565Z,99791.13
2022-09-11T09:08:41.289Z,99794.81
2022-09-11T09:11:39.125Z,99796.84
2022-09-11T09:15:04.195Z,99791.97
2022-09-11T09:17:59.291Z,99791.03
2022-09-11T09:21:00.373Z,99794.59
2022-09-11T09:23:54.448Z,99788.84
2022-09-11T09:26:43.083Z,99790.53
2022-09-11T09:29:37.854Z,99793.81
2022-09-11T09:32:32.755Z,99787.00
2022-09-11T09:35:26.091Z,99789.66
2022-09-11T09:38:18.629Z,99786.00
2022-09-11T09:41:37.463Z,99785.69
2022-09-11T09:44:42.926Z,99787.78
2022-09-11T09:47:31.019Z,99789.34
2022-09-11T09:50:22.141Z,99787.47
2022-09-11T09:53:22.164Z,99790.13
2022-09-11T09:56:17.287Z,99789.84
2022-09-11T09:59:18.203Z,99793.06
2022-09-11T10:02:05.900Z,99795.19
2022-09-11T10:05:18.066Z,99798.41
2022-09-11T10:08:07.357Z,99802.09
2022-09-11T10:11:00.326Z,99800.03
2022-09-11T10:13:57.277Z,99807.47
2022-09-11T10:16:50.297Z,99801.69
2022-09-11T10:19:41.581Z,99799.59
2022-09-11T10:22:32.340Z,99800.16
2022-09-11T10:25:23.426Z,99800.16
2022-09-11T10:28:14.972Z,99806.25
2022-09-11T10:31:05.784Z,99797.53
2022-09-11T10:33:56.584Z,99805.53
2022-09-11T10:36:55.054Z,99807.38
2022-09-11T10:39:45.407Z,99801.59
2022-09-11T10:42:37.836Z,99801.91
2022-09-11T10:45:25.884Z,99797.94
2022-09-11T10:48:23.975Z,99808.81
2022-09-11T10:51:13.988Z,99822.03
2022-09-11T10:54:22.903Z,99817.31
2022-09-11T10:57:19.116Z,99810.16
2022-09-11T11:00:16.751Z,99823.66
2022-09-11T11:03:12.472Z,99813.38
2022-09-11T11:06:13.764Z,99804.72
2022-09-11T11:09:22.534Z,99806.41
2022-09-11T11:12:31.982Z,99805.19
2022-09-11T11:15:34.109Z,99804.13
2022-09-11T11:18:35.340Z,99798.00
2022-09-11T11:21:44.638Z,99801.06
2022-09-11T11:24:53.396Z,99791.72
2022-09-11T11:28:20.440Z,99802.47
2022-09-11T11:31:27.073Z,99791.00
2022-09-11T11:34:32.500Z,99791.53
2022-09-11T11:37:28.188Z,99794.69
2022-09-11T11:40:23.591Z,99788.31
2022-09-11T11:43:13.835Z,99791.94
2022-09-11T11:46:05.738Z,99803.03
2022-09-11T11:48:57.147Z,99790.81
2022-09-11T11:51:55.252Z,99799.47
2022-09-11T11:54:52.401Z,99795.00
2022-09-11T11:57:46.636Z,99804.41
2022-09-11T12:00:42.809Z,99804.94
2022-09-11T12:03:39.707Z,99801.72
2022-09-11T12:06:27.536Z,99801.13
2022-09-11T12:09:19.100Z,99804.50
2022-09-11T12:12:09.552Z,99807.63
2022-09-11T12:15:04.905Z,99794.09
2022-09-11T12:18:02.826Z,99802.84
2022-09-11T12:20:50.376Z,99803.13
2022-09-11T12:24:21.263Z,99799.50
2022-09-11T12:27:51.898Z,99803.41
2022-09-11T12:31:06.132Z,99799.63
2022-09-11T12:33:57.832Z,99787.66
2022-09-11T12:36:53.875Z,99796.13
2022-09-11T12:39:52.759Z,99801.41
2022-09-11T12:43:27.841Z,99801.19
2022-09-11T12:47:14.623Z,99777.38
2022-09-11T12:50:17.094Z,99784.16
2022-09-11T12:53:06.304Z,99776.72
2022-09-11T12:56:00.148Z,99778.28
2022-09-11T12:58:55.794Z,99773.47
2022-09-11T13:01:45.923Z,99769.78
2022-09-11T13:04:34.941Z,99765.75
2022-09-11T13:07:31.251Z,99768.63
2022-09-11T13:10:35.263Z,99768.00
2022-09-11T13:13:46.800Z,99762.72
2022-09-11T13:16:35.842Z,99762.44
2022-09-11T13:19:23.770Z,99757.34
2022-09-11T13:22:26.924Z,99755.97
2022-09-11T13:25:20.319Z,99753.63
2022-09-11T13:28:07.934Z,99746.19
2022-09-11T13:31:02.845Z,99750.69
2022-09-11T13:33:53.586Z,99746.75
2022-09-11T13:36:41.861Z,99752.06
2022-09-11T13:39:29.339Z,99745.19
2022-09-11T13:42:20.957Z,99739.31
2022-09-11T13:45:13.832Z,99747.75
2022-09-11T13:48:01.247Z,99749.31
2022-09-11T13:50:50.716Z,99748.25
2022-09-11T13:53:37.996Z,99744.22
2022-09-11T13:56:47.435Z,99743.94
2022-09-11T13:59:41.615Z,99736.00
2022-09-11T14:02:51.195Z,99733.91
2022-09-11T14:05:39.603Z,99729.72
2022-09-11T14:08:35.165Z,99738.38
2022-09-11T14:11:28.216Z,99729.34
2022-09-11T14:14:24.097Z,99725.63
2022-09-11T14:17:13.827Z,99719.56
2022-09-11T14:20:03.797Z,99722.19
2022-09-11T14:22:56.220Z,99720.31
2022-09-11T14:26:12.610Z,99711.09
2022-09-11T14:29:03.963Z,99706.59
2022-09-11T14:31:52.335Z,99702.06
2022-09-11T14:34:39.507Z,99702.06
2022-09-11T14:37:29.019Z,99700.72
2022-09-11T14:40:19.425Z,99702.78
2022-09-11T14:43:08.238Z,99696.59
2022-09-11T14:45:56.378Z,99705.03
2022-09-11T14:48:44.269Z,99697.59
2022-09-11T14:51:32.011Z,99700.72
2022-09-11T14:54:22.557Z,99697.47
2022-09-11T14:57:17.224Z,99696.91
2022-09-11T15:00:12.012Z,99694.25
2022-09-11T15:03:00.352Z,99701.91
2022-09-11T15:05:55.066Z,99690.22
2022-09-11T15:08:42.261Z,99687.88
2022-09-11T15:11:29.651Z,99686.31
2022-09-11T15:14:37.978Z,99683.66
2022-09-11T15:17:31.633Z,99683.16
2022-09-11T15:20:20.831Z,99676.28
2022-09-11T15:23:08.457Z,99685.31
2022-09-11T15:26:01.595Z,99674.22
2022-09-11T15:28:51.708Z,99678.13
2022-09-11T15:31:39.493Z,99667.53
2022-09-11T15:34:32.501Z,99672.06
2022-09-11T15:37:20.029Z,99670.81
2022-09-11T15:40:10.145Z,99665.28
2022-09-11T15:42:58.452Z,99664.78
2022-09-11T15:45:45.742Z,99669.31
2022-09-11T15:48:32.948Z,99664.03
2022-09-11T15:51:24.855Z,99664.78
2022-09-11T15:54:13.596Z,99660.59
2022-09-11T15:57:01.124Z,99662.44
2022-09-11T15:59:49.999Z,99666.97
2022-09-11T16:02:37.301Z,99667.44
2022-09-11T16:05:24.720Z,99661.09
2022-09-11T16:08:15.368Z,99662.66
2022-09-11T16:11:05.513Z,99655.78
2022-09-11T16:13:55.017Z,99659.50
2022-09-11T16:16:42.423Z,99659.50
2022-09-11T16:19:31.611Z,99663.72
2022-09-11T16:22:18.751Z,99662.16
2022-09-11T16:25:08.097Z,99657.13
2022-09-11T16:27:58.443Z,99655.56
2022-09-11T16:30:50.667Z,99656.38
2022-09-11T16:33:44.312Z,99654.81
2022-09-11T16:36:38.363Z,99663.81
2022-09-11T16:39:25.706Z,99652.75
2022-09-11T16:42:14.685Z,99653.03
2022-09-11T16:45:01.965Z,99661.28
2022-09-11T16:47:49.422Z,99657.03
2022-09-11T16:50:36.775Z,99658.63
2022-09-11T16:53:25.379Z,99650.97
2022-09-11T16:56:15.623Z,99652.81
2022-09-11T16:59:06.512Z,99645.94
2022-09-11T17:01:57.301Z,99654.47
2022-09-11T17:04:44.582Z,99651.31
2022-09-11T17:07:32.114Z,99648.19
2022-09-11T17:10:19.443Z,99643.47
2022-09-11T17:13:07.015Z,99650.91
2022-09-11T17:15:55.888Z,99653.38
2022-09-11T17:18:47.403Z,99653.16
2022-09-11T17:21:35.982Z,99650.81
2022-09-11T17:24:24.192Z,99659.84
2022-09-11T17:27:11.375Z,99655.13
2022-09-11T17:29:58.859Z,99656.50
2022-09-11T17:32:48.172Z,99646.47
2022-09-11T17:35:35.822Z,99652.66
2022-09-11T17:38:23.922Z,99648.22
2022-09-11T17:41:12.281Z,99640.88
2022-09-11T17:43:59.583Z,99649.41
2022-09-11T17:46:47.227Z,99654.47
2022-09-11T17:49:35.912Z,99663.56
2022-09-11T17:52:24.412Z,99667.41
2022-09-11T17:55:11.962Z,99663.44
2022-09-11T17:57:59.733Z,99658.69
2022-09-11T18:00:47.146Z,99668.31
2022-09-11T18:03:36.463Z,99660.47
2022-09-11T18:06:28.403Z,99665.81
2022-09-11T18:09:17.976Z,99664.34
2022-09-11T18:12:05.967Z,99665.97
2022-09-11T18:14:55.959Z,99672.16
2022-09-11T18:17:43.745Z,99674.03
2022-09-11T18:20:31.267Z,99673.06
2022-09-11T18:23:19.816Z,99665.69
2022-09-11T18:26:09.185Z,99676.34
2022-09-11T18:29:00.090Z,99682.22
2022-09-11T18:31:50.346Z,99681.22
2022-09-11T18:34:37.956Z,99687.06
2022-09-11T18:37:25.560Z,99683.44
2022-09-11T18:40:14.349Z,99686.09
2022-09-11T18:43:02.112Z,99679.53
2022-09-11T18:45:49.203Z,99680.09
2022-09-11T18:48:36.399Z,99686.75
2022-09-11T18:51:25.835Z,99682.31
2022-09-11T18:54:15.605Z,99689.22
2022-09-11T18:57:04.500Z,99686.88
2022-09-11T18:59:52.156Z,99693.50
2022-09-11T19:02:39.702Z,99697.47
2022-09-11T19:05:27.267Z,99697.28
2022-09-11T19:08:14.473Z,99698.91
2022-09-11T19:11:07.797Z,99701.59
2022-09-11T19:14:02.961Z,99703.81
2022-09-11T19:16:50.220Z,99697.78
2022-09-11T19:19:37.458Z,99708.91
2022-09-11T19:22:24.921Z,99709.47
2022-09-11T19:25:12.545Z,99700.25
2022-09-11T19:28:00.367Z,99709.81
2022-09-11T19:30:58.344Z,99707.47
2022-09-11T19:33:46.413Z,99708.25
2022-09-11T19:36:36.670Z,99706.19
2022-09-11T19:39:24.660Z,99708.88
2022-09-11T19:42:12.255Z,99707.88
2022-09-11T19:45:00.379Z,99708.44
2022-09-11T19:47:49.159Z,99713.47
2022-09-11T19:50:38.286Z,99708.75
2022-09-11T19:53:25.836Z,99716.44
2022-09-11T19:56:13.744Z,99709.63
2022-09-11T19:59:01.170Z,99710.97
2022-09-11T20:01:48.457Z,99721.81
2022-09-11T20:04:37.236Z,99719.72
2022-09-11T20:07:25.077Z,99712.13
2022-09-11T20:10:12.601Z,99715.31
2022-09-11T20:13:00.488Z,99712.72
2022-09-11T20:15:48.655Z,99710.63
2022-09-11T20:18:36.590Z,99715.41
2022-09-11T20:21:26.303Z,99705.41
2022-09-11T20:24:14.934Z,99705.97
2022-09-11T20:27:02.369Z,99718.63
2022-09-11T20:29:49.584Z,99711.78
2022-09-11T20:32:38.921Z,99715.50
2022-09-11T20:35:26.540Z,99714.44
2022-09-11T20:38:17.528Z,99711.56
2022-09-11T20:41:08.633Z,99708.66
2022-09-11T20:43:56.727Z,99702.38
2022-09-11T20:46:47.355Z,99709.00
2022-09-11T20:49:34.819Z,99706.63
2022-09-11T20:52:22.064Z,99705.06
2022-09-11T20:55:11.125Z,99708.75
2022-09-11T20:58:00.599Z,99706.16
2022-09-11T21:00:48.157Z,99696.69
2022-09-11T21:03:35.550Z,99702.75
2022-09-11T21:06:26.304Z,99691.47
2022-09-11T21:09:13.741Z,99693.09
2022-09-11T21:12:03.046Z,99694.66
2022-09-11T21:14:50.403Z,99701.00
2022-09-11T21:17:37.823Z,99695.50
2022-09-11T21:20:25.665Z,99694.97
2022-09-11T21:23:12.947Z,99689.44
2022-09-11T21:26:00.373Z,99693.94
2022-09-11T21:28:49.157Z,99691.06
2022-09-11T21:31:37.174Z,99698.47
2022-09-11T21:34:24.570Z,99698.75
2022-09-11T21:37:12.003Z,99693.22
2022-09-11T21:39:59.275Z,99697.97
2022-09-11T21:42:46.554Z,99698.53
2022-09-11T21:45:35.263Z,99690.84
2022-09-11T21:48:22.889Z,99685.31
2022-09-11T21:51:12.541Z,99691.66
2022-09-11T21:54:01.777Z,99686.94
2022-09-11T21:56:49.630Z,99684.34
2022-09-11T21:59:36.985Z,99689.09
2022-09-11T22:02:26.566Z,99694.88
2022-09-11T22:05:14.488Z,99690.16
2022-09-11T22:08:01.941Z,99684.94
2022-09-11T22:10:51.756Z,99685.72
2022-09-11T22:13:40.671Z,99693.91
2022-09-11T22:16:29.057Z,99690.72
2022-09-11T22:19:17.726Z,99685.75
2022-09-11T22:22:06.713Z,99682.88
2022-09-11T22:24:54.013Z,99688.66
2022-09-11T22:27:41.425Z,99680.78
2022-09-11T22:30:30.222Z,99676.56
2022-09-11T22:33:17.540Z,99684.75
2022-09-11T22:36:11.779Z,99676.56
2022-09-11T22:39:00.284Z,99682.91
2022-09-11T22:41:47.539Z,99682.38
2022-09-11T22:44:34.775Z,99669.78
2022-09-11T22:47:22.147Z,99676.06
2022-09-11T22:50:10.166Z,99679.25
2022-09-11T22:52:58.984Z,99673.22
2022-09-11T22:55:47.750Z,99683.25
2022-09-11T22:58:35.283Z,99680.06
2022-09-11T23:01:22.904Z,99682.97
2022-09-11T23:04:10.551Z,99688.00
2022-09-11T23:07:15.343Z,99674.81
2022-09-11T23:10:04.516Z,99678.75
2022-09-11T23:12:52.553Z,99676.66
2022-09-11T23:15:40.186Z,99679.03
2022-09-11T23:18:28.463Z,99675.09
2022-09-11T23:21:17.923Z,99674.59
2022-09-11T23:24:07.218Z,99674.59
2022-09-11T23:26:55.792Z,99677.22
2022-09-11T23:29:43.267Z,99681.94
2022-09-11T23:32:30.997Z,99682.75
2022-09-11T23:35:18.848Z,99682.50
2022-09-11T23:38:06.156Z,99673.56
2022-09-11T23:40:53.347Z,99669.59
2022-09-11T23:43:42.277Z,99666.72
2022-09-11T23:46:29.720Z,99659.63
2022-09-11T23:49:16.936Z,99660.69
2022-09-11T23:52:04.728Z,99663.59
2022-09-11T23:54:52.487Z,99664.63
2022-09-11T23:57:39.894Z,99658.84
